sensor_id;sensor_type;location;lat;lon;timestamp;pressure;altitude;pressure_sealevel;temperature;humidity
36192;BME280;22233;42.708;23.360;2023-03-04T00:00:19;95436.66;;;7.19;76.55
36192;BME280;22233;42.708;23.360;2023-03-04T00:02:44;95450.81;;;7.30;75.94
36192;BME280;22233;42.708;23.360;2023-03-04T00:05:10;95433.00;;;7.48;74.10
36192;BME280;22233;42.708;23.360;2023-03-04T00:07:35;95440.66;;;7.03;76.44
36192;BME280;22233;42.708;23.360;2023-03-04T00:10:01;95442.09;;;6.95;76.60
36192;BME280;22233;42.708;23.360;2023-03-04T00:12:26;95423.28;;;7.09;75.76
36192;BME280;22233;42.708;23.360;2023-03-04T00:14:51;95438.56;;;7.38;75.18
36192;BME280;22233;42.708;23.360;2023-03-04T00:17:17;95449.16;;;7.53;75.09
36192;BME280;22233;42.708;23.360;2023-03-04T00:19:42;95445.00;;;7.42;75.49
36192;BME280;22233;42.708;23.360;2023-03-04T00:22:08;95439.41;;;7.38;76.63
36192;BME280;22233;42.708;23.360;2023-03-04T00:24:33;95432.94;;;7.15;76.84
36192;BME280;22233;42.708;23.360;2023-03-04T00:26:59;95435.56;;;7.58;75.14
36192;BME280;22233;42.708;23.360;2023-03-04T00:29:25;95434.03;;;7.52;75.09
36192;BME280;22233;42.708;23.360;2023-03-04T00:31:50;95436.69;;;7.57;75.10
36192;BME280;22233;42.708;23.360;2023-03-04T00:34:15;95421.69;;;7.46;75.34
36192;BME280;22233;42.708;23.360;2023-03-04T00:36:41;95417.22;;;7.74;74.27
36192;BME280;22233;42.708;23.360;2023-03-04T00:39:09;95421.53;;;7.56;74.50
36192;BME280;22233;42.708;23.360;2023-03-04T00:41:35;95413.72;;;7.74;73.88
36192;BME280;22233;42.708;23.360;2023-03-04T00:44:00;95414.84;;;7.87;74.45
36192;BME280;22233;42.708;23.360;2023-03-04T00:46:25;95419.97;;;7.88;74.36
36192;BME280;22233;42.708;23.360;2023-03-04T00:48:51;95405.59;;;7.74;73.95
36192;BME280;22233;42.708;23.360;2023-03-04T00:51:16;95409.31;;;7.78;73.62
36192;BME280;22233;42.708;23.360;2023-03-04T00:53:42;95420.94;;;7.78;74.40
36192;BME280;22233;42.708;23.360;2023-03-04T00:56:07;95405.19;;;7.67;73.85
36192;BME280;22233;42.708;23.360;2023-03-04T00:58:32;95413.66;;;7.60;74.16
36192;BME280;22233;42.708;23.360;2023-03-04T01:00:58;95415.78;;;7.63;73.88
36192;BME280;22233;42.708;23.360;2023-03-04T01:03:23;95421.41;;;7.67;74.25
36192;BME280;22233;42.708;23.360;2023-03-04T01:05:51;95392.03;;;7.60;74.19
36192;BME280;22233;42.708;23.360;2023-03-04T01:08:16;95424.13;;;7.29;76.10
36192;BME280;22233;42.708;23.360;2023-03-04T01:10:41;95423.19;;;7.38;75.62
36192;BME280;22233;42.708;23.360;2023-03-04T01:13:07;95420.81;;;7.70;74.80
36192;BME280;22233;42.708;23.360;2023-03-04T01:15:32;95416.00;;;7.48;74.80
36192;BME280;22233;42.708;23.360;2023-03-04T01:17:58;95408.56;;;7.39;74.77
36192;BME280;22233;42.708;23.360;2023-03-04T01:20:23;95395.16;;;6.91;75.79
36192;BME280;22233;42.708;23.360;2023-03-04T01:22:49;95417.75;;;7.19;75.38
36192;BME280;22233;42.708;23.360;2023-03-04T01:25:14;95416.72;;;7.34;74.98
36192;BME280;22233;42.708;23.360;2023-03-04T01:27:40;95406.88;;;7.25;75.97
36192;BME280;22233;42.708;23.360;2023-03-04T01:30:06;95410.09;;;7.27;74.96
36192;BME280;22233;42.708;23.360;2023-03-04T01:32:31;95406.72;;;6.97;76.99
36192;BME280;22233;42.708;23.360;2023-03-04T01:34:56;95393.81;;;7.13;76.14
36192;BME280;22233;42.708;23.360;2023-03-04T01:37:22;95403.66;;;7.23;75.83
36192;BME280;22233;42.708;23.360;2023-03-04T01:39:47;95404.28;;;6.95;77.37
36192;BME280;22233;42.708;23.360;2023-03-04T01:42:21;95403.72;;;7.17;76.47
36192;BME280;22233;42.708;23.360;2023-03-04T01:44:48;95398.91;;;7.33;75.56
36192;BME280;22233;42.708;23.360;2023-03-04T01:47:14;95378.38;;;7.32;75.03
36192;BME280;22233;42.708;23.360;2023-03-04T01:49:40;95383.06;;;7.65;75.39
36192;BME280;22233;42.708;23.360;2023-03-04T01:52:09;95376.47;;;7.71;73.48
36192;BME280;22233;42.708;23.360;2023-03-04T01:54:36;95366.97;;;7.54;74.21
36192;BME280;22233;42.708;23.360;2023-03-04T01:57:26;95363.81;;;7.66;73.83
36192;BME280;22233;42.708;23.360;2023-03-04T02:00:31;95383.47;;;7.72;73.89
36192;BME280;22233;42.708;23.360;2023-03-04T02:03:00;95374.09;;;7.83;73.69
36192;BME280;22233;42.708;23.360;2023-03-04T02:05:27;95383.13;;;7.92;73.20
36192;BME280;22233;42.708;23.360;2023-03-04T02:07:53;95371.22;;;7.93;72.80
36192;BME280;22233;42.708;23.360;2023-03-04T02:10:19;95371.25;;;7.74;72.75
36192;BME280;22233;42.708;23.360;2023-03-04T02:12:45;95371.13;;;7.66;72.35
36192;BME280;22233;42.708;23.360;2023-03-04T02:15:11;95381.97;;;7.47;73.62
36192;BME280;22233;42.708;23.360;2023-03-04T02:17:37;95381.78;;;7.76;72.54
36192;BME280;22233;42.708;23.360;2023-03-04T02:22:50;95365.03;;;7.41;74.07
36192;BME280;22233;42.708;23.360;2023-03-04T02:25:23;95374.00;;;7.17;74.35
36192;BME280;22233;42.708;23.360;2023-03-04T02:27:50;95370.59;;;7.31;74.69
36192;BME280;22233;42.708;23.360;2023-03-04T02:30:19;95364.13;;;7.46;73.96
36192;BME280;22233;42.708;23.360;2023-03-04T02:32:44;95370.97;;;7.76;72.52
36192;BME280;22233;42.708;23.360;2023-03-04T02:35:15;95375.69;;;7.84;71.94
36192;BME280;22233;42.708;23.360;2023-03-04T02:37:42;95376.59;;;7.79;71.41
36192;BME280;22233;42.708;23.360;2023-03-04T02:40:17;95375.31;;;7.39;73.04
36192;BME280;22233;42.708;23.360;2023-03-04T02:42:45;95351.63;;;7.50;72.61
36192;BME280;22233;42.708;23.360;2023-03-04T02:45:30;95368.69;;;7.83;71.81
36192;BME280;22233;42.708;23.360;2023-03-04T02:47:58;95373.66;;;7.76;71.47
36192;BME280;22233;42.708;23.360;2023-03-04T02:50:25;95341.34;;;7.52;71.98
36192;BME280;22233;42.708;23.360;2023-03-04T02:52:52;95361.59;;;7.87;71.66
36192;BME280;22233;42.708;23.360;2023-03-04T02:55:17;95348.13;;;7.82;71.58
36192;BME280;22233;42.708;23.360;2023-03-04T02:57:42;95346.13;;;7.74;71.37
36192;BME280;22233;42.708;23.360;2023-03-04T03:00:08;95359.47;;;7.84;70.84
36192;BME280;22233;42.708;23.360;2023-03-04T03:02:35;95365.47;;;7.81;71.21
36192;BME280;22233;42.708;23.360;2023-03-04T03:05:00;95355.06;;;7.88;70.73
36192;BME280;22233;42.708;23.360;2023-03-04T03:07:25;95349.16;;;7.86;70.70
36192;BME280;22233;42.708;23.360;2023-03-04T03:09:51;95364.00;;;8.03;71.25
36192;BME280;22233;42.708;23.360;2023-03-04T03:12:16;95352.19;;;7.98;70.95
36192;BME280;22233;42.708;23.360;2023-03-04T03:14:42;95369.91;;;8.05;70.69
36192;BME280;22233;42.708;23.360;2023-03-04T03:17:07;95351.63;;;7.69;71.07
36192;BME280;22233;42.708;23.360;2023-03-04T03:19:32;95360.31;;;7.66;71.82
36192;BME280;22233;42.708;23.360;2023-03-04T03:21:58;95364.19;;;7.59;72.03
36192;BME280;22233;42.708;23.360;2023-03-04T03:24:23;95354.13;;;7.46;71.90
36192;BME280;22233;42.708;23.360;2023-03-04T03:26:48;95357.34;;;7.48;72.18
36192;BME280;22233;42.708;23.360;2023-03-04T03:29:14;95368.03;;;7.39;72.05
36192;BME280;22233;42.708;23.360;2023-03-04T03:31:39;95351.41;;;7.46;71.85
36192;BME280;22233;42.708;23.360;2023-03-04T03:34:05;95348.16;;;7.49;72.03
36192;BME280;22233;42.708;23.360;2023-03-04T03:36:30;95346.00;;;7.65;71.68
36192;BME280;22233;42.708;23.360;2023-03-04T03:38:55;95353.03;;;7.80;71.29
36192;BME280;22233;42.708;23.360;2023-03-04T03:41:21;95357.19;;;7.91;70.91
36192;BME280;22233;42.708;23.360;2023-03-04T03:43:46;95356.00;;;7.97;70.53
36192;BME280;22233;42.708;23.360;2023-03-04T03:46:11;95362.72;;;8.00;70.26
36192;BME280;22233;42.708;23.360;2023-03-04T03:48:37;95339.47;;;7.99;69.76
36192;BME280;22233;42.708;23.360;2023-03-04T03:51:02;95358.06;;;7.87;70.26
36192;BME280;22233;42.708;23.360;2023-03-04T03:53:28;95343.88;;;7.95;69.92
36192;BME280;22233;42.708;23.360;2023-03-04T03:55:53;95350.31;;;7.99;70.43
36192;BME280;22233;42.708;23.360;2023-03-04T03:58:19;95352.78;;;7.95;69.92
36192;BME280;22233;42.708;23.360;2023-03-04T04:00:44;95325.78;;;7.76;69.93
36192;BME280;22233;42.708;23.360;2023-03-04T04:03:13;95351.97;;;7.81;70.70
36192;BME280;22233;42.708;23.360;2023-03-04T04:05:39;95322.56;;;7.74;70.45
36192;BME280;22233;42.708;23.360;2023-03-04T04:08:05;95330.72;;;7.88;70.04
36192;BME280;22233;42.708;23.360;2023-03-04T04:10:30;95330.00;;;7.83;70.23
36192;BME280;22233;42.708;23.360;2023-03-04T04:12:56;95333.22;;;7.71;70.30
36192;BME280;22233;42.708;23.360;2023-03-04T04:15:21;95332.41;;;7.84;70.32
36192;BME280;22233;42.708;23.360;2023-03-04T04:17:46;95339.84;;;7.92;69.68
36192;BME280;22233;42.708;23.360;2023-03-04T04:20:12;95342.72;;;7.82;69.53
36192;BME280;22233;42.708;23.360;2023-03-04T04:22:37;95333.31;;;7.79;69.79
36192;BME280;22233;42.708;23.360;2023-03-04T04:25:03;95327.41;;;7.77;69.70
36192;BME280;22233;42.708;23.360;2023-03-04T04:27:29;95324.88;;;7.67;69.51
36192;BME280;22233;42.708;23.360;2023-03-04T04:29:54;95316.56;;;7.64;69.34
36192;BME280;22233;42.708;23.360;2023-03-04T04:32:20;95330.88;;;7.64;69.82
36192;BME280;22233;42.708;23.360;2023-03-04T04:34:45;95334.91;;;7.67;69.45
36192;BME280;22233;42.708;23.360;2023-03-04T04:37:10;95342.41;;;7.70;69.51
36192;BME280;22233;42.708;23.360;2023-03-04T04:39:36;95342.78;;;7.63;69.63
36192;BME280;22233;42.708;23.360;2023-03-04T04:42:01;95337.41;;;7.44;70.32
36192;BME280;22233;42.708;23.360;2023-03-04T04:44:27;95336.72;;;7.52;69.90
36192;BME280;22233;42.708;23.360;2023-03-04T04:46:52;95345.81;;;7.43;70.35
36192;BME280;22233;42.708;23.360;2023-03-04T04:49:18;95327.69;;;7.43;70.39
36192;BME280;22233;42.708;23.360;2023-03-04T04:51:43;95350.75;;;7.54;70.16
36192;BME280;22233;42.708;23.360;2023-03-04T04:54:09;95332.94;;;7.53;69.56
36192;BME280;22233;42.708;23.360;2023-03-04T04:56:36;95328.50;;;7.44;69.92
36192;BME280;22233;42.708;23.360;2023-03-04T04:59:03;95344.94;;;7.47;69.28
36192;BME280;22233;42.708;23.360;2023-03-04T05:01:29;95338.00;;;7.41;70.52
36192;BME280;22233;42.708;23.360;2023-03-04T05:03:55;95348.53;;;7.43;70.43
36192;BME280;22233;42.708;23.360;2023-03-04T05:06:22;95362.75;;;7.48;69.96
36192;BME280;22233;42.708;23.360;2023-03-04T05:08:48;95359.63;;;7.41;70.45
36192;BME280;22233;42.708;23.360;2023-03-04T05:11:14;95358.31;;;7.38;70.54
36192;BME280;22233;42.708;23.360;2023-03-04T05:13:40;95372.28;;;7.27;70.98
36192;BME280;22233;42.708;23.360;2023-03-04T05:16:06;95361.66;;;7.30;70.94
36192;BME280;22233;42.708;23.360;2023-03-04T05:18:31;95365.75;;;7.28;71.26
36192;BME280;22233;42.708;23.360;2023-03-04T05:20:59;95369.31;;;7.42;71.00
36192;BME280;22233;42.708;23.360;2023-03-04T05:23:27;95368.16;;;7.48;70.94
36192;BME280;22233;42.708;23.360;2023-03-04T05:25:53;95367.97;;;7.58;70.52
36192;BME280;22233;42.708;23.360;2023-03-04T05:28:19;95359.50;;;7.65;70.45
36192;BME280;22233;42.708;23.360;2023-03-04T05:30:45;95372.94;;;7.70;71.17
36192;BME280;22233;42.708;23.360;2023-03-04T05:33:12;95379.53;;;7.64;71.62
36192;BME280;22233;42.708;23.360;2023-03-04T05:35:39;95373.19;;;7.55;72.40
36192;BME280;22233;42.708;23.360;2023-03-04T05:38:06;95377.59;;;7.32;72.62
36192;BME280;22233;42.708;23.360;2023-03-04T05:40:32;95386.09;;;7.58;72.30
36192;BME280;22233;42.708;23.360;2023-03-04T05:42:58;95389.75;;;7.67;72.61
36192;BME280;22233;42.708;23.360;2023-03-04T05:45:24;95373.94;;;7.74;71.90
36192;BME280;22233;42.708;23.360;2023-03-04T05:47:50;95371.75;;;7.76;71.90
36192;BME280;22233;42.708;23.360;2023-03-04T05:50:15;95385.31;;;7.57;73.44
36192;BME280;22233;42.708;23.360;2023-03-04T05:52:41;95390.06;;;7.66;72.93
36192;BME280;22233;42.708;23.360;2023-03-04T05:55:07;95375.44;;;7.67;72.19
36192;BME280;22233;42.708;23.360;2023-03-04T05:57:32;95398.38;;;7.69;72.23
36192;BME280;22233;42.708;23.360;2023-03-04T05:59:58;95388.47;;;7.46;73.33
36192;BME280;22233;42.708;23.360;2023-03-04T06:02:23;95391.97;;;7.46;73.06
36192;BME280;22233;42.708;23.360;2023-03-04T06:04:48;95400.22;;;7.55;73.07
36192;BME280;22233;42.708;23.360;2023-03-04T06:07:14;95402.19;;;7.49;72.91
36192;BME280;22233;42.708;23.360;2023-03-04T06:09:39;95404.81;;;7.54;72.70
36192;BME280;22233;42.708;23.360;2023-03-04T06:12:05;95405.31;;;7.56;73.53
36192;BME280;22233;42.708;23.360;2023-03-04T06:14:30;95412.06;;;7.59;72.91
36192;BME280;22233;42.708;23.360;2023-03-04T06:16:56;95409.03;;;7.60;72.63
36192;BME280;22233;42.708;23.360;2023-03-04T06:19:21;95413.00;;;7.49;73.42
36192;BME280;22233;42.708;23.360;2023-03-04T06:21:47;95402.09;;;7.54;72.72
36192;BME280;22233;42.708;23.360;2023-03-04T06:24:12;95388.97;;;7.67;72.42
36192;BME280;22233;42.708;23.360;2023-03-04T06:26:37;95391.44;;;7.63;72.88
36192;BME280;22233;42.708;23.360;2023-03-04T06:29:04;95409.41;;;7.73;72.68
36192;BME280;22233;42.708;23.360;2023-03-04T06:31:29;95403.00;;;7.69;72.50
36192;BME280;22233;42.708;23.360;2023-03-04T06:33:55;95404.72;;;7.78;72.72
36192;BME280;22233;42.708;23.360;2023-03-04T06:36:20;95403.19;;;7.72;72.13
36192;BME280;22233;42.708;23.360;2023-03-04T06:38:46;95423.13;;;7.76;72.99
36192;BME280;22233;42.708;23.360;2023-03-04T06:41:12;95405.72;;;7.83;72.30
36192;BME280;22233;42.708;23.360;2023-03-04T06:43:38;95420.09;;;9.40;90.16
36192;BME280;22233;42.708;23.360;2023-03-04T06:46:05;95416.22;;;9.55;74.00
36192;BME280;22233;42.708;23.360;2023-03-04T06:48:30;95419.81;;;9.42;69.82
36192;BME280;22233;42.708;23.360;2023-03-04T06:50:56;95412.00;;;9.27;68.48
36192;BME280;22233;42.708;23.360;2023-03-04T06:53:21;95420.03;;;9.18;68.75
36192;BME280;22233;42.708;23.360;2023-03-04T06:55:47;95429.41;;;8.98;68.29
36192;BME280;22233;42.708;23.360;2023-03-04T06:58:13;95410.84;;;8.64;68.58
36192;BME280;22233;42.708;23.360;2023-03-04T07:00:39;95422.56;;;8.45;69.36
36192;BME280;22233;42.708;23.360;2023-03-04T07:03:05;95422.75;;;8.49;68.97
36192;BME280;22233;42.708;23.360;2023-03-04T07:05:30;95421.56;;;8.22;70.49
36192;BME280;22233;42.708;23.360;2023-03-04T07:07:56;95414.16;;;8.14;70.38
36192;BME280;22233;42.708;23.360;2023-03-04T07:10:21;95406.84;;;8.28;69.84
36192;BME280;22233;42.708;23.360;2023-03-04T07:12:47;95424.94;;;8.47;70.62
36192;BME280;22233;42.708;23.360;2023-03-04T07:15:12;95415.63;;;8.53;70.50
36192;BME280;22233;42.708;23.360;2023-03-04T07:17:38;95425.38;;;8.68;69.87
36192;BME280;22233;42.708;23.360;2023-03-04T07:20:04;95438.81;;;8.59;70.24
36192;BME280;22233;42.708;23.360;2023-03-04T07:22:29;95423.06;;;8.61;70.03
36192;BME280;22233;42.708;23.360;2023-03-04T07:24:55;95428.97;;;8.63;70.32
36192;BME280;22233;42.708;23.360;2023-03-04T07:27:20;95420.97;;;8.58;70.03
36192;BME280;22233;42.708;23.360;2023-03-04T07:29:45;95421.19;;;8.62;70.22
36192;BME280;22233;42.708;23.360;2023-03-04T07:32:11;95430.31;;;8.66;70.74
36192;BME280;22233;42.708;23.360;2023-03-04T07:34:36;95425.19;;;8.64;70.72
36192;BME280;22233;42.708;23.360;2023-03-04T07:37:02;95435.91;;;8.83;70.29
36192;BME280;22233;42.708;23.360;2023-03-04T07:39:28;95426.59;;;8.15;71.60
36192;BME280;22233;42.708;23.360;2023-03-04T07:41:53;95435.28;;;8.12;72.06
36192;BME280;22233;42.708;23.360;2023-03-04T07:44:18;95428.09;;;8.35;70.52
36192;BME280;22233;42.708;23.360;2023-03-04T07:46:44;95442.53;;;8.30;70.76
36192;BME280;22233;42.708;23.360;2023-03-04T07:49:11;95430.53;;;8.36;69.58
36192;BME280;22233;42.708;23.360;2023-03-04T07:51:38;95421.25;;;8.43;70.06
36192;BME280;22233;42.708;23.360;2023-03-04T07:54:03;95431.00;;;8.57;69.40
36192;BME280;22233;42.708;23.360;2023-03-04T07:56:31;95416.13;;;8.55;67.99
36192;BME280;22233;42.708;23.360;2023-03-04T07:58:57;95410.84;;;8.31;68.99
36192;BME280;22233;42.708;23.360;2023-03-04T08:01:25;95427.81;;;8.69;69.51
36192;BME280;22233;42.708;23.360;2023-03-04T08:03:51;95428.09;;;8.95;69.02
36192;BME280;22233;42.708;23.360;2023-03-04T08:06:18;95414.94;;;8.89;66.80
36192;BME280;22233;42.708;23.360;2023-03-04T08:08:44;95424.19;;;9.02;68.31
36192;BME280;22233;42.708;23.360;2023-03-04T08:11:18;95418.94;;;9.05;68.27
36192;BME280;22233;42.708;23.360;2023-03-04T08:13:45;95389.47;;;8.90;68.72
36192;BME280;22233;42.708;23.360;2023-03-04T08:16:15;95405.31;;;9.10;68.14
36192;BME280;22233;42.708;23.360;2023-03-04T08:18:43;95424.38;;;9.05;68.18
36192;BME280;22233;42.708;23.360;2023-03-04T08:21:10;95410.53;;;8.79;68.68
36192;BME280;22233;42.708;23.360;2023-03-04T08:23:36;95412.03;;;8.85;68.58
36192;BME280;22233;42.708;23.360;2023-03-04T08:26:07;95412.94;;;8.53;69.03
36192;BME280;22233;42.708;23.360;2023-03-04T08:28:34;95419.38;;;8.85;69.23
36192;BME280;22233;42.708;23.360;2023-03-04T08:30:59;95423.19;;;8.97;68.14
36192;BME280;22233;42.708;23.360;2023-03-04T08:33:25;95403.84;;;8.30;69.28
36192;BME280;22233;42.708;23.360;2023-03-04T08:35:51;95400.19;;;8.07;68.94
36192;BME280;22233;42.708;23.360;2023-03-04T08:38:16;95408.72;;;8.47;67.20
36192;BME280;22233;42.708;23.360;2023-03-04T08:40:42;95409.44;;;8.52;67.44
36192;BME280;22233;42.708;23.360;2023-03-04T08:43:07;95411.03;;;8.53;66.57
36192;BME280;22233;42.708;23.360;2023-03-04T08:45:33;95390.88;;;8.46;67.18
36192;BME280;22233;42.708;23.360;2023-03-04T08:47:58;95390.66;;;8.42;66.94
36192;BME280;22233;42.708;23.360;2023-03-04T08:50:24;95400.72;;;8.55;68.90
36192;BME280;22233;42.708;23.360;2023-03-04T08:52:51;95397.81;;;8.52;69.36
36192;BME280;22233;42.708;23.360;2023-03-04T08:55:17;95401.59;;;8.65;69.73
36192;BME280;22233;42.708;23.360;2023-03-04T08:57:42;95404.03;;;8.94;67.98
36192;BME280;22233;42.708;23.360;2023-03-04T09:00:09;95403.16;;;9.21;67.59
36192;BME280;22233;42.708;23.360;2023-03-04T09:02:34;95400.44;;;9.21;67.78
36192;BME280;22233;42.708;23.360;2023-03-04T09:05:00;95403.69;;;9.09;66.71
36192;BME280;22233;42.708;23.360;2023-03-04T09:07:25;95389.81;;;9.25;67.00
36192;BME280;22233;42.708;23.360;2023-03-04T09:09:50;95384.31;;;9.16;65.97
36192;BME280;22233;42.708;23.360;2023-03-04T09:12:16;95402.69;;;9.05;65.51
36192;BME280;22233;42.708;23.360;2023-03-04T09:14:41;95390.75;;;9.06;65.04
36192;BME280;22233;42.708;23.360;2023-03-04T09:17:07;95395.56;;;9.09;63.70
36192;BME280;22233;42.708;23.360;2023-03-04T09:19:32;95392.06;;;8.95;64.07
36192;BME280;22233;42.708;23.360;2023-03-04T09:21:57;95380.63;;;8.98;63.88
36192;BME280;22233;42.708;23.360;2023-03-04T09:24:24;95397.28;;;8.91;65.02
36192;BME280;22233;42.708;23.360;2023-03-04T09:26:51;95388.09;;;9.29;64.15
36192;BME280;22233;42.708;23.360;2023-03-04T09:29:17;95378.41;;;9.50;63.27
36192;BME280;22233;42.708;23.360;2023-03-04T09:31:42;95383.69;;;9.55;63.21
36192;BME280;22233;42.708;23.360;2023-03-04T09:34:08;95382.19;;;9.27;63.04
36192;BME280;22233;42.708;23.360;2023-03-04T09:36:33;95378.13;;;9.38;62.63
36192;BME280;22233;42.708;23.360;2023-03-04T09:39:00;95381.06;;;9.64;62.75
36192;BME280;22233;42.708;23.360;2023-03-04T09:41:36;95368.00;;;9.66;63.21
36192;BME280;22233;42.708;23.360;2023-03-04T09:44:04;95374.22;;;9.89;62.89
36192;BME280;22233;42.708;23.360;2023-03-04T09:46:34;95364.91;;;9.82;62.51
36192;BME280;22233;42.708;23.360;2023-03-04T09:49:02;95382.47;;;10.07;61.86
36192;BME280;22233;42.708;23.360;2023-03-04T09:51:46;95348.13;;;9.79;63.49
36192;BME280;22233;42.708;23.360;2023-03-04T09:54:27;95372.59;;;10.11;61.87
36192;BME280;22233;42.708;23.360;2023-03-04T10:05:31;95369.72;;;10.16;62.03
36192;BME280;22233;42.708;23.360;2023-03-04T10:08:02;95356.31;;;10.11;61.48
36192;BME280;22233;42.708;23.360;2023-03-04T10:10:37;95357.41;;;10.10;61.77
36192;BME280;22233;42.708;23.360;2023-03-04T10:13:05;95355.78;;;10.00;61.44
36192;BME280;22233;42.708;23.360;2023-03-04T10:15:41;95352.53;;;9.67;61.76
36192;BME280;22233;42.708;23.360;2023-03-04T10:18:13;95354.53;;;10.06;61.13
36192;BME280;22233;42.708;23.360;2023-03-04T10:23:32;95336.03;;;9.18;62.59
36192;BME280;22233;42.708;23.360;2023-03-04T10:26:01;95348.19;;;9.66;61.45
36192;BME280;22233;42.708;23.360;2023-03-04T10:28:34;95350.47;;;9.95;61.33
36192;BME280;22233;42.708;23.360;2023-03-04T10:33:44;95319.69;;;9.99;61.20
36192;BME280;22233;42.708;23.360;2023-03-04T10:38:53;95310.50;;;10.18;60.31
36192;BME280;22233;42.708;23.360;2023-03-04T10:41:23;95299.22;;;10.25;60.13
36192;BME280;22233;42.708;23.360;2023-03-04T10:46:47;95305.28;;;10.62;59.88
36192;BME280;22233;42.708;23.360;2023-03-04T10:49:15;95302.59;;;10.79;60.28
36192;BME280;22233;42.708;23.360;2023-03-04T10:54:24;95298.25;;;10.61;59.24
36192;BME280;22233;42.708;23.360;2023-03-04T11:00:00;95295.44;;;11.09;60.31
36192;BME280;22233;42.708;23.360;2023-03-04T11:02:34;95289.19;;;11.00;60.07
36192;BME280;22233;42.708;23.360;2023-03-04T11:05:24;95287.22;;;10.74;59.98
36192;BME280;22233;42.708;23.360;2023-03-04T11:07:59;95285.81;;;10.77;60.34
36192;BME280;22233;42.708;23.360;2023-03-04T11:10:29;95272.25;;;11.03;59.67
36192;BME280;22233;42.708;23.360;2023-03-04T11:12:59;95261.38;;;11.03;59.18
36192;BME280;22233;42.708;23.360;2023-03-04T11:15:27;95267.44;;;11.00;59.56
36192;BME280;22233;42.708;23.360;2023-03-04T11:18:02;95253.72;;;11.14;58.69
36192;BME280;22233;42.708;23.360;2023-03-04T11:20:32;95259.44;;;10.86;60.06
36192;BME280;22233;42.708;23.360;2023-03-04T11:23:04;95258.19;;;11.01;60.18
36192;BME280;22233;42.708;23.360;2023-03-04T11:25:33;95232.59;;;10.93;59.09
36192;BME280;22233;42.708;23.360;2023-03-04T11:28:18;95231.66;;;11.07;59.72
36192;BME280;22233;42.708;23.360;2023-03-04T11:30:58;95241.22;;;11.39;58.64
36192;BME280;22233;42.708;23.360;2023-03-04T11:33:40;95222.47;;;11.46;57.65
36192;BME280;22233;42.708;23.360;2023-03-04T11:38:43;95223.22;;;11.73;58.20
36192;BME280;22233;42.708;23.360;2023-03-04T11:41:13;95215.25;;;11.68;58.81
36192;BME280;22233;42.708;23.360;2023-03-04T11:43:45;95214.44;;;11.58;57.25
36192;BME280;22233;42.708;23.360;2023-03-04T11:56:34;95209.13;;;11.79;57.14
36192;BME280;22233;42.708;23.360;2023-03-04T11:59:21;95194.22;;;10.77;58.69
36192;BME280;22233;42.708;23.360;2023-03-04T12:02:23;95210.53;;;10.86;59.82
36192;BME280;22233;42.708;23.360;2023-03-04T12:10:38;95194.56;;;10.85;60.06
36192;BME280;22233;42.708;23.360;2023-03-04T12:15:49;95193.41;;;11.29;58.79
36192;BME280;22233;42.708;23.360;2023-03-04T12:27:06;95179.84;;;10.86;60.17
36192;BME280;22233;42.708;23.360;2023-03-04T12:30:02;95169.59;;;11.00;59.44
36192;BME280;22233;42.708;23.360;2023-03-04T12:46:36;95166.25;;;11.68;57.94
36192;BME280;22233;42.708;23.360;2023-03-04T12:49:25;95163.38;;;11.64;57.73
36192;BME280;22233;42.708;23.360;2023-03-04T12:54:24;95158.00;;;11.55;57.11
36192;BME280;22233;42.708;23.360;2023-03-04T12:57:03;95147.38;;;11.63;57.32
36192;BME280;22233;42.708;23.360;2023-03-04T12:59:36;95143.25;;;11.56;57.79
36192;BME280;22233;42.708;23.360;2023-03-04T13:10:12;95138.19;;;11.29;58.48
36192;BME280;22233;42.708;23.360;2023-03-04T13:12:59;95124.28;;;11.30;58.77
36192;BME280;22233;42.708;23.360;2023-03-04T13:18:29;95135.53;;;11.11;59.68
36192;BME280;22233;42.708;23.360;2023-03-04T13:23:29;95108.84;;;11.13;59.43
36192;BME280;22233;42.708;23.360;2023-03-04T13:28:23;95115.69;;;11.19;59.33
36192;BME280;22233;42.708;23.360;2023-03-04T13:36:06;95098.91;;;11.17;58.90
36192;BME280;22233;42.708;23.360;2023-03-04T13:41:49;95120.91;;;11.42;58.48
36192;BME280;22233;42.708;23.360;2023-03-04T13:47:29;95093.94;;;11.19;57.73
36192;BME280;22233;42.708;23.360;2023-03-04T13:50:19;95100.75;;;11.34;58.59
36192;BME280;22233;42.708;23.360;2023-03-04T13:52:46;95108.91;;;11.43;57.78
36192;BME280;22233;42.708;23.360;2023-03-04T13:55:35;95109.28;;;11.33;58.60
36192;BME280;22233;42.708;23.360;2023-03-04T13:58:13;95089.06;;;11.43;57.85
36192;BME280;22233;42.708;23.360;2023-03-04T14:00:47;95085.31;;;11.17;58.97
36192;BME280;22233;42.708;23.360;2023-03-04T14:03:19;95096.84;;;11.53;58.09
36192;BME280;22233;42.708;23.360;2023-03-04T14:05:45;95076.28;;;11.43;58.07
36192;BME280;22233;42.708;23.360;2023-03-04T14:08:18;95084.84;;;11.54;58.29
36192;BME280;22233;42.708;23.360;2023-03-04T14:10:44;95085.91;;;11.70;58.01
36192;BME280;22233;42.708;23.360;2023-03-04T14:13:18;95093.28;;;11.70;57.51
36192;BME280;22233;42.708;23.360;2023-03-04T14:15:53;95079.84;;;11.65;58.69
36192;BME280;22233;42.708;23.360;2023-03-04T14:18:19;95064.19;;;11.62;57.92
36192;BME280;22233;42.708;23.360;2023-03-04T14:20:48;95088.72;;;11.91;57.86
36192;BME280;22233;42.708;23.360;2023-03-04T14:23:31;95067.06;;;11.95;57.35
36192;BME280;22233;42.708;23.360;2023-03-04T14:26:16;95072.28;;;11.70;58.36
36192;BME280;22233;42.708;23.360;2023-03-04T14:28:48;95077.81;;;11.83;57.40
36192;BME280;22233;42.708;23.360;2023-03-04T14:31:19;95062.63;;;11.82;58.00
36192;BME280;22233;42.708;23.360;2023-03-04T14:33:49;95071.41;;;11.87;57.16
36192;BME280;22233;42.708;23.360;2023-03-04T14:36:19;95062.94;;;11.89;57.09
36192;BME280;22233;42.708;23.360;2023-03-04T14:38:51;95065.22;;;11.78;57.17
36192;BME280;22233;42.708;23.360;2023-03-04T14:43:59;95067.88;;;11.87;57.74
36192;BME280;22233;42.708;23.360;2023-03-04T14:46:34;95068.47;;;12.01;58.29